Time;durP1;ratioP1;P1;durP2;ratioP2;P2;SDS_P1;SDS_P2;PMS_P1;PMS_P2;Temp;Humidity;BMP_temperature;BMP_pressure;BME280_temperature;BME280_humidity;BME280_pressure;Samples;Min_cycle;Max_cycle;Signal;HPM_P1;HPM_P2
2023/08/14 00:00:54;;;;;;;4.22;2.53;;;26.70;96.70;;;;;;5061398;28;20490;-76
2023/08/14 00:03:23;;;;;;;4.00;2.50;;;26.60;96.70;;;;;;5061562;28;20049;-76
2023/08/14 00:05:52;;;;;;;3.22;2.80;;;26.60;96.70;;;;;;5062303;28;20040;-76
2023/08/14 00:08:21;;;;;;;3.88;2.50;;;26.50;96.70;;;;;;5062546;28;20101;-76
2023/08/14 00:10:50;;;;;;;6.38;3.03;;;26.50;96.70;;;;;;5061299;28;20584;-76
2023/08/14 00:13:21;;;;;;;2.80;2.47;;;26.60;96.70;;;;;;5058717;28;20563;-76
2023/08/14 00:15:50;;;;;;;3.55;2.40;;;26.70;96.70;;;;;;5063218;28;20043;-76
2023/08/14 00:18:19;;;;;;;5.53;2.90;;;26.80;96.70;;;;;;5062947;28;20123;-75
2023/08/14 00:20:48;;;;;;;3.78;2.55;;;26.90;96.70;;;;;;5061165;28;20049;-76
2023/08/14 00:23:17;;;;;;;4.15;2.60;;;26.90;96.70;;;;;;5061475;28;20102;-76
2023/08/14 00:25:45;;;;;;;4.18;2.70;;;26.80;96.70;;;;;;5063198;28;20040;-75
2023/08/14 00:28:14;;;;;;;6.13;3.08;;;26.90;96.70;;;;;;5059097;28;20050;-76
2023/08/14 00:30:44;;;;;;;5.60;3.25;;;26.80;96.70;;;;;;5061528;28;20040;-76
2023/08/14 00:33:13;;;;;;;5.30;2.60;;;26.80;96.70;;;;;;5061866;28;20110;-76
2023/08/14 00:35:42;;;;;;;5.57;3.00;;;26.80;96.70;;;;;;5052899;28;20036;-75
2023/08/14 00:38:10;;;;;;;3.72;2.65;;;26.90;96.70;;;;;;5060939;28;20094;-76
2023/08/14 00:40:39;;;;;;;3.63;2.70;;;26.90;96.70;;;;;;5064295;28;20041;-76
2023/08/14 00:43:09;;;;;;;2.35;2.10;;;27.00;96.70;;;;;;5065855;28;20044;-75
2023/08/14 00:45:38;;;;;;;3.65;2.47;;;27.20;96.70;;;;;;5068957;28;20143;-75
2023/08/14 00:48:15;;;;;;;;;;;27.20;96.70;;;;;;5058014;28;20040;-76
2023/08/14 00:50:45;;;;;;;5.57;2.95;;;26.90;96.70;;;;;;5065275;28;20420;-76
2023/08/14 00:53:14;;;;;;;3.78;2.50;;;26.80;96.70;;;;;;5066209;28;20048;-76
2023/08/14 00:55:44;;;;;;;5.90;2.55;;;26.80;96.70;;;;;;5066271;28;20032;-76
2023/08/14 00:58:14;;;;;;;6.65;2.92;;;26.80;96.70;;;;;;5063135;28;20445;-76
2023/08/14 01:00:44;;;;;;;2.55;2.35;;;26.70;96.70;;;;;;5064567;28;20044;-76
2023/08/14 01:03:15;;;;;;;2.97;2.20;;;26.70;96.70;;;;;;5064050;28;20071;-75
2023/08/14 01:05:45;;;;;;;5.07;2.30;;;26.70;96.70;;;;;;5065738;28;20059;-76
2023/08/14 01:08:14;;;;;;;3.72;2.75;;;26.70;96.70;;;;;;5063601;28;20044;-76
2023/08/14 01:10:58;;;;;;;3.53;2.33;;;26.70;96.70;;;;;;5056344;28;20064;-76
2023/08/14 01:13:35;;;;;;;3.80;2.65;;;26.60;96.70;;;;;;5065351;28;20406;-76
2023/08/14 01:16:07;;;;;;;3.35;2.30;;;26.60;96.70;;;;;;5064504;28;20049;-76
2023/08/14 01:18:40;;;;;;;4.10;2.55;;;26.60;96.70;;;;;;5065223;28;20098;-75
2023/08/14 01:21:35;;;;;;;3.63;2.30;;;26.60;96.70;;;;;;5065417;28;20145;-75
2023/08/14 01:24:18;;;;;;;4.13;2.45;;;26.60;96.70;;;;;;5061711;28;20122;-76
2023/08/14 01:26:50;;;;;;;3.63;2.72;;;26.70;96.70;;;;;;5080580;28;20110;-76
2023/08/14 01:29:19;;;;;;;5.45;2.53;;;26.70;96.70;;;;;;5064941;28;20037;-76
2023/08/14 01:31:48;;;;;;;4.03;2.72;;;26.60;96.70;;;;;;5065202;28;20491;-76
2023/08/14 01:34:17;;;;;;;3.38;2.03;;;26.50;96.70;;;;;;5063965;28;20057;-76
2023/08/14 01:36:53;;;;;;;4.75;3.03;;;26.50;96.70;;;;;;5062699;28;20049;-75
2023/08/14 01:39:24;;;;;;;;;;;26.40;96.70;;;;;;5064301;28;20052;-76
2023/08/14 01:42:03;;;;;;;3.55;2.30;;;26.40;96.70;;;;;;5065401;28;19939;-75
2023/08/14 01:44:32;;;;;;;3.22;2.40;;;26.40;96.70;;;;;;5046795;28;20764;-76
2023/08/14 01:47:03;;;;;;;4.03;2.20;;;26.40;96.70;;;;;;5058716;28;20053;-76
2023/08/14 01:49:33;;;;;;;3.22;2.28;;;26.30;96.70;;;;;;5063343;28;20113;-76
2023/08/14 01:52:02;;;;;;;4.20;2.33;;;26.30;96.70;;;;;;5062485;28;20040;-76
2023/08/14 01:55:08;;;;;;;5.40;2.35;;;26.30;96.70;;;;;;5047467;28;20044;-76
2023/08/14 01:57:38;;;;;;;3.42;2.45;;;26.30;96.70;;;;;;5059023;28;20071;-76
2023/08/14 02:00:09;;;;;;;2.25;2.00;;;26.40;96.70;;;;;;5063048;28;20042;-76
2023/08/14 02:02:41;;;;;;;3.72;2.38;;;26.40;96.70;;;;;;5063591;28;20057;-76
2023/08/14 02:05:10;;;;;;;2.63;2.40;;;26.40;96.70;;;;;;5062610;28;20040;-75
2023/08/14 02:07:39;;;;;;;4.15;2.40;;;26.40;96.70;;;;;;5062879;28;20426;-76
2023/08/14 02:10:09;;;;;;;4.32;2.15;;;26.40;96.70;;;;;;5046449;28;20552;-76
2023/08/14 02:12:39;;;;;;;3.22;2.38;;;26.30;96.70;;;;;;5072181;28;20757;-75
2023/08/14 02:15:09;;;;;;;3.75;2.20;;;26.20;96.70;;;;;;5063312;28;20036;-75
2023/08/14 02:17:38;;;;;;;2.83;2.38;;;26.20;96.70;;;;;;5045767;28;20518;-75
2023/08/14 02:20:09;;;;;;;3.83;2.33;;;26.20;96.70;;;;;;5063016;28;20041;-76
2023/08/14 02:22:37;;;;;;;3.47;2.28;;;26.20;96.70;;;;;;5062463;28;20044;-75
2023/08/14 02:25:07;;;;;;;4.38;2.47;;;26.20;96.70;;;;;;5062025;28;20060;-76
2023/08/14 02:27:38;;;;;;;3.03;2.03;;;26.20;96.70;;;;;;5063090;28;20060;-76
2023/08/14 02:30:07;;;;;;;3.78;2.03;;;26.10;96.70;;;;;;5062923;28;20055;-76
2023/08/14 02:32:36;;;;;;;3.50;2.80;;;26.00;96.70;;;;;;5062351;28;20044;-76
2023/08/14 02:35:05;;;;;;;3.28;2.15;;;26.00;96.70;;;;;;5064318;28;20079;-76
2023/08/14 02:37:34;;;;;;;3.17;2.03;;;26.00;96.70;;;;;;5061855;28;20040;-76
2023/08/14 02:40:04;;;;;;;3.85;2.20;;;25.90;96.70;;;;;;5061976;28;20058;-75
2023/08/14 02:42:33;;;;;;;3.70;2.17;;;25.90;96.70;;;;;;5061417;28;20461;-76
2023/08/14 02:45:04;;;;;;;5.38;2.22;;;26.00;96.70;;;;;;5063998;28;20052;-75
2023/08/14 02:47:33;;;;;;;4.03;2.17;;;26.00;96.70;;;;;;5062334;28;20056;-75
2023/08/14 02:50:03;;;;;;;3.35;2.42;;;26.00;96.70;;;;;;5064670;28;20048;-75
2023/08/14 02:52:32;;;;;;;2.60;2.17;;;25.90;96.70;;;;;;5062031;28;20048;-76
2023/08/14 02:55:00;;;;;;;4.75;2.45;;;25.90;96.70;;;;;;5066591;28;20053;-76
2023/08/14 02:57:29;;;;;;;3.70;2.67;;;26.00;96.70;;;;;;5063605;28;20510;-76
2023/08/14 02:59:58;;;;;;;4.30;2.58;;;26.10;96.70;;;;;;5062275;28;20044;-76
2023/08/14 03:02:29;;;;;;;2.30;2.10;;;26.10;96.70;;;;;;5056790;28;20118;-76
2023/08/14 03:04:59;;;;;;;4.15;2.00;;;26.00;96.70;;;;;;5061752;28;20127;-75
2023/08/14 03:07:27;;;;;;;5.13;2.70;;;25.90;96.70;;;;;;5061584;28;20414;-76
2023/08/14 03:09:56;;;;;;;4.55;2.70;;;25.80;96.70;;;;;;5062008;28;20058;-76
2023/08/14 03:12:25;;;;;;;2.67;2.13;;;25.70;96.70;;;;;;5063417;28;20044;-76
2023/08/14 03:14:54;;;;;;;4.35;2.55;;;25.60;96.70;;;;;;5061148;28;20048;-76
2023/08/14 03:17:23;;;;;;;2.30;2.05;;;25.60;96.70;;;;;;5061483;28;20764;-76
2023/08/14 03:19:53;;;;;;;2.47;2.28;;;25.60;96.70;;;;;;5062418;28;20048;-75
2023/08/14 03:22:23;;;;;;;5.25;2.50;;;25.60;96.70;;;;;;5061258;28;20155;-76
2023/08/14 03:24:51;;;;;;;4.28;2.65;;;25.60;96.70;;;;;;5061545;28;20089;-76
2023/08/14 03:27:20;;;;;;;3.60;2.15;;;25.70;96.70;;;;;;5062685;28;20123;-75
2023/08/14 03:29:49;;;;;;;2.13;1.92;;;25.70;96.70;;;;;;5045084;28;20044;-76
2023/08/14 03:32:18;;;;;;;4.30;2.50;;;25.70;96.70;;;;;;5055877;28;20049;-75
2023/08/14 03:34:48;;;;;;;3.28;2.45;;;25.60;96.70;;;;;;5061086;28;20147;-76
2023/08/14 03:37:18;;;;;;;4.15;2.30;;;25.60;96.70;;;;;;5061582;28;20040;-75
2023/08/14 03:39:47;;;;;;;3.38;2.10;;;25.60;96.70;;;;;;5060880;28;20457;-76
2023/08/14 03:42:16;;;;;;;3.47;2.33;;;25.60;96.70;;;;;;5061681;28;20078;-76
2023/08/14 03:44:46;;;;;;;2.67;2.25;;;25.50;96.70;;;;;;5060618;28;20076;-77
2023/08/14 03:47:18;;;;;;;3.17;2.25;;;25.40;96.70;;;;;;5043286;28;20578;-75
2023/08/14 03:49:47;;;;;;;2.42;2.10;;;25.40;96.70;;;;;;5063343;28;20558;-76
2023/08/14 03:52:18;;;;;;;2.75;2.10;;;25.40;96.70;;;;;;5062971;28;20055;-76
2023/08/14 03:54:47;;;;;;;3.50;2.40;;;25.30;96.70;;;;;;5048224;28;20473;-76
2023/08/14 03:57:16;;;;;;;2.63;2.00;;;25.30;96.70;;;;;;5058341;28;20052;-76
2023/08/14 03:59:45;;;;;;;5.15;2.10;;;25.30;96.70;;;;;;5054666;28;20052;-76
2023/08/14 04:02:18;;;;;;;2.03;1.77;;;25.30;96.70;;;;;;5045509;28;20057;-76
2023/08/14 04:04:48;;;;;;;3.28;2.22;;;25.30;96.70;;;;;;5063179;28;20055;-76
2023/08/14 04:07:19;;;;;;;2.58;2.30;;;25.30;96.70;;;;;;5061302;28;20052;-76
2023/08/14 04:09:48;;;;;;;2.20;1.90;;;25.30;96.70;;;;;;5062497;28;20122;-76
2023/08/14 04:12:17;;;;;;;2.70;2.15;;;25.20;96.70;;;;;;5061399;28;20544;-76
2023/08/14 04:14:49;;;;;;;3.08;2.15;;;25.20;96.70;;;;;;5062656;28;20051;-76
2023/08/14 04:17:19;;;;;;;3.92;1.95;;;25.10;96.70;;;;;;5066352;28;20044;-76
2023/08/14 04:19:48;;;;;;;2.85;2.45;;;25.20;96.70;;;;;;5044777;28;20056;-76
2023/08/14 04:22:19;;;;;;;3.45;2.33;;;25.20;96.70;;;;;;5064534;28;20051;-75
2023/08/14 04:24:48;;;;;;;4.10;2.35;;;25.30;96.70;;;;;;5048886;28;20059;-78
2023/08/14 04:27:18;;;;;;;3.30;2.33;;;25.20;96.70;;;;;;5065996;28;20051;-76
2023/08/14 04:29:47;;;;;;;4.43;2.20;;;25.20;96.70;;;;;;5065043;28;20494;-76
2023/08/14 04:32:16;;;;;;;5.80;2.25;;;25.20;96.70;;;;;;5064983;28;20131;-76
2023/08/14 04:34:47;;;;;;;3.95;2.17;;;25.20;96.70;;;;;;5064440;28;20555;-76
2023/08/14 04:37:18;;;;;;;5.35;2.00;;;25.20;96.70;;;;;;5064885;28;20087;-76
2023/08/14 04:39:48;;;;;;;3.40;2.20;;;25.10;96.70;;;;;;5064012;28;20052;-76
2023/08/14 04:42:17;;;;;;;5.30;2.35;;;25.10;96.70;;;;;;5064824;28;20052;-76
2023/08/14 04:44:47;;;;;;;4.50;2.67;;;25.20;96.70;;;;;;5048095;28;20049;-76
2023/08/14 04:47:16;;;;;;;5.97;3.05;;;25.20;96.70;;;;;;5063850;28;20052;-76
2023/08/14 04:49:45;;;;;;;10.30;6.20;;;25.20;96.70;;;;;;5069071;28;20064;-75
2023/08/14 04:52:14;;;;;;;7.05;4.22;;;25.20;96.70;;;;;;5065781;28;20051;-76
2023/08/14 04:54:46;;;;;;;6.55;4.60;;;25.10;96.70;;;;;;5062869;28;20052;-75
2023/08/14 04:57:16;;;;;;;4.53;3.60;;;25.10;96.70;;;;;;5065013;28;20059;-76
2023/08/14 04:59:46;;;;;;;5.72;3.60;;;25.00;96.70;;;;;;5064334;28;20075;-76
2023/08/14 05:02:15;;;;;;;4.60;3.42;;;24.90;96.70;;;;;;5065978;28;20048;-76
2023/08/14 05:04:46;;;;;;;5.78;3.10;;;24.90;96.70;;;;;;5064213;28;20049;-76
2023/08/14 05:07:15;;;;;;;3.30;2.95;;;24.90;96.70;;;;;;5063767;28;20052;-76
2023/08/14 05:09:48;;;;;;;3.15;2.78;;;24.80;96.70;;;;;;5064356;28;20044;-76
2023/08/14 05:12:17;;;;;;;2.63;2.40;;;24.80;96.70;;;;;;5061120;28;20060;-76
2023/08/14 05:14:47;;;;;;;4.50;2.88;;;24.90;96.70;;;;;;5065415;28;20526;-76
2023/08/14 05:17:16;;;;;;;4.40;2.40;;;24.90;96.70;;;;;;5047235;28;20135;-76
2023/08/14 05:19:46;;;;;;;2.75;1.95;;;25.00;96.70;;;;;;5063040;28;20397;-76
2023/08/14 05:22:15;;;;;;;4.72;2.47;;;25.00;96.70;;;;;;5064006;28;20460;-75
2023/08/14 05:24:47;;;;;;;3.97;2.20;;;25.10;96.70;;;;;;5055540;28;20079;-76
2023/08/14 05:27:16;;;;;;;3.42;2.00;;;25.10;96.70;;;;;;5063940;28;20163;-76
2023/08/14 05:29:47;;;;;;;4.10;2.25;;;25.00;96.70;;;;;;5063679;28;20044;-76
2023/08/14 05:32:16;;;;;;;6.50;2.67;;;25.00;96.70;;;;;;5064555;28;20036;-76
2023/08/14 05:34:46;;;;;;;4.70;2.40;;;25.00;96.70;;;;;;5044528;28;20041;-75
2023/08/14 05:37:15;;;;;;;6.47;2.60;;;25.00;96.70;;;;;;5037138;28;20037;-76
2023/08/14 05:39:46;;;;;;;3.97;2.17;;;25.00;96.70;;;;;;5044893;28;20033;-76
2023/08/14 05:42:15;;;;;;;3.30;2.30;;;25.00;96.70;;;;;;5045769;28;20099;-76
2023/08/14 05:44:45;;;;;;;5.03;2.40;;;25.00;96.70;;;;;;5044980;28;20040;-76
2023/08/14 05:47:14;;;;;;;3.58;2.30;;;25.00;96.70;;;;;;5043885;28;20128;-76
2023/08/14 05:49:43;;;;;;;3.72;1.88;;;25.10;96.70;;;;;;5036909;28;20044;-76
2023/08/14 05:52:12;;;;;;;5.63;2.20;;;25.20;96.70;;;;;;5037323;28;20098;-76
2023/08/14 05:54:41;;;;;;;3.38;2.03;;;25.30;96.70;;;;;;5043795;28;20063;-75
2023/08/14 05:57:12;;;;;;;2.83;2.30;;;25.40;96.70;;;;;;5045051;28;20125;-76
2023/08/14 05:59:41;;;;;;;3.75;2.38;;;25.50;96.70;;;;;;5042333;28;20052;-75
2023/08/14 06:02:11;;;;;;;3.58;2.42;;;25.60;96.70;;;;;;5027279;28;20049;-76
2023/08/14 06:04:40;;;;;;;4.70;2.83;;;25.60;96.70;;;;;;5044733;28;20037;-76
2023/08/14 06:07:10;;;;;;;5.10;2.92;;;25.60;96.70;;;;;;5022775;28;20058;-76
2023/08/14 06:09:39;;;;;;;4.72;2.67;;;25.70;96.70;;;;;;5041985;28;20120;-76
2023/08/14 06:12:09;;;;;;;7.10;2.47;;;25.70;96.70;;;;;;5043729;28;20649;-76
2023/08/14 06:14:39;;;;;;;4.25;3.22;;;25.80;96.70;;;;;;5035783;28;20048;-76
2023/08/14 06:17:09;;;;;;;4.68;2.97;;;25.90;96.70;;;;;;5043028;28;20057;-75
2023/08/14 06:19:38;;;;;;;5.72;3.30;;;25.90;96.70;;;;;;5044306;28;20155;-75
2023/08/14 06:22:07;;;;;;;3.88;3.20;;;26.00;96.70;;;;;;5044421;28;20041;-75
2023/08/14 06:24:36;;;;;;;3.75;2.55;;;25.90;96.70;;;;;;5042159;28;20048;-76
2023/08/14 06:27:06;;;;;;;6.15;3.78;;;26.00;96.70;;;;;;5032567;28;20052;-76
2023/08/14 06:29:35;;;;;;;6.43;3.25;;;26.10;96.70;;;;;;5042644;28;20048;-76
2023/08/14 06:32:06;;;;;;;5.07;2.95;;;26.00;96.70;;;;;;5044623;28;20036;-75
2023/08/14 06:34:36;;;;;;;6.25;3.17;;;26.00;96.70;;;;;;5061337;28;20105;-75
2023/08/14 06:37:06;;;;;;;8.23;3.65;;;26.10;96.70;;;;;;5062872;28;20048;-75
2023/08/14 06:39:35;;;;;;;3.78;3.28;;;26.10;96.70;;;;;;5056340;28;20676;-75
2023/08/14 06:42:05;;;;;;;4.03;3.00;;;26.10;96.70;;;;;;5064323;28;20037;-76
2023/08/14 06:44:35;;;;;;;4.18;3.03;;;26.20;96.70;;;;;;5061518;28;20058;-76
2023/08/14 06:47:06;;;;;;;6.32;3.33;;;26.20;96.70;;;;;;5061462;28;20131;-75
2023/08/14 06:49:35;;;;;;;5.43;4.03;;;26.30;96.70;;;;;;5063464;28;20052;-76
2023/08/14 06:52:04;;;;;;;5.80;3.55;;;26.30;96.70;;;;;;5053732;28;20040;-76
2023/08/14 06:54:34;;;;;;;4.18;3.58;;;26.30;96.70;;;;;;5062174;28;20744;-75
2023/08/14 06:57:04;;;;;;;6.70;3.17;;;26.30;96.70;;;;;;5062440;28;20111;-76
2023/08/14 06:59:34;;;;;;;5.13;3.13;;;26.40;96.70;;;;;;5062050;28;20429;-76
2023/08/14 07:02:05;;;;;;;4.07;3.10;;;26.40;96.70;;;;;;5061911;28;20044;-76
2023/08/14 07:04:35;;;;;;;5.30;3.45;;;26.50;96.70;;;;;;5044895;28;20102;-76
2023/08/14 07:07:04;;;;;;;5.10;3.47;;;26.60;96.70;;;;;;5061234;28;20086;-75
2023/08/14 07:09:33;;;;;;;6.13;3.28;;;26.60;96.70;;;;;;5045758;28;20098;-76
2023/08/14 07:12:03;;;;;;;8.30;3.20;;;26.60;96.70;;;;;;5063673;28;20045;-76
2023/08/14 07:14:33;;;;;;;4.70;3.28;;;26.60;96.70;;;;;;5062778;28;20117;-76
2023/08/14 07:17:02;;;;;;;5.13;3.30;;;26.70;96.70;;;;;;5053529;28;20052;-76
2023/08/14 07:19:33;;;;;;;3.92;2.88;;;26.70;96.70;;;;;;5061912;28;20048;-76
2023/08/14 07:22:02;;;;;;;4.22;2.95;;;26.80;96.70;;;;;;5063488;28;20068;-76
2023/08/14 07:24:32;;;;;;;5.43;2.92;;;26.70;96.70;;;;;;5045137;28;20041;-76
2023/08/14 07:27:01;;;;;;;6.50;3.33;;;26.80;96.70;;;;;;5061204;28;20055;-76
2023/08/14 07:29:31;;;;;;;6.55;3.53;;;26.90;96.70;;;;;;5062545;28;20052;-76
2023/08/14 07:32:04;;;;;;;7.38;3.15;;;26.90;96.70;;;;;;5063330;28;20036;-76
2023/08/14 07:34:35;;;;;;;5.47;3.65;;;27.00;96.70;;;;;;5063379;28;20399;-75
2023/08/14 07:37:04;;;;;;;5.22;3.10;;;27.00;96.70;;;;;;5063296;28;20094;-76
2023/08/14 07:39:33;;;;;;;4.40;2.92;;;27.10;96.70;;;;;;5062515;28;20079;-76
2023/08/14 07:42:03;;;;;;;4.25;2.75;;;27.10;96.70;;;;;;5062948;28;20049;-76
2023/08/14 07:44:32;;;;;;;5.25;2.90;;;27.20;96.70;;;;;;5058579;28;20102;-76
2023/08/14 07:47:01;;;;;;;4.43;2.72;;;27.20;96.70;;;;;;5062801;28;20056;-76
2023/08/14 07:49:34;;;;;;;6.60;3.33;;;27.30;96.70;;;;;;5064522;28;20107;-75
2023/08/14 07:52:03;;;;;;;4.82;2.70;;;27.30;96.70;;;;;;5066859;28;20044;-76
2023/08/14 07:54:32;;;;;;;3.78;2.80;;;27.40;96.70;;;;;;5067118;28;20032;-75
2023/08/14 07:57:01;;;;;;;3.58;2.78;;;27.40;96.70;;;;;;5066909;28;20041;-76
2023/08/14 07:59:30;;;;;;;4.72;2.38;;;27.40;96.70;;;;;;5064388;28;20043;-76
2023/08/14 08:02:00;;;;;;;5.38;2.70;;;27.50;96.70;;;;;;5067192;28;20072;-76
2023/08/14 08:04:36;;;;;;;7.28;3.63;;;27.50;96.70;;;;;;5081628;28;20131;-76
2023/08/14 08:07:09;;;;;;;5.90;3.03;;;27.60;96.70;;;;;;5065368;28;20044;-76
2023/08/14 08:09:38;;;;;;;3.80;2.65;;;27.60;96.70;;;;;;5066633;28;20086;-76
2023/08/14 08:12:08;;;;;;;3.58;2.78;;;27.70;96.70;;;;;;5065897;28;20392;-76
2023/08/14 08:14:37;;;;;;;5.22;2.97;;;27.80;96.70;;;;;;5064861;28;20592;-76
2023/08/14 08:17:08;;;;;;;4.18;2.60;;;27.80;96.70;;;;;;5066186;28;20094;-76
2023/08/14 08:19:38;;;;;;;3.20;2.50;;;27.90;96.70;;;;;;5066761;28;20090;-76
2023/08/14 08:22:09;;;;;;;4.15;2.95;;;28.10;96.70;;;;;;5064946;28;20728;-75
2023/08/14 08:24:38;;;;;;;4.57;2.78;;;28.00;96.70;;;;;;5065331;28;20048;-76
2023/08/14 08:27:07;;;;;;;4.82;2.70;;;28.00;96.70;;;;;;5066528;28;20151;-76
2023/08/14 08:29:36;;;;;;;3.85;2.60;;;28.10;96.70;;;;;;5065946;28;20106;-76
2023/08/14 08:32:06;;;;;;;4.80;2.50;;;28.30;96.70;;;;;;5066491;28;20045;-76
2023/08/14 08:34:35;;;;;;;4.13;2.50;;;28.40;96.70;;;;;;5064558;28;20418;-76
2023/08/14 08:37:03;;;;;;;7.55;2.72;;;28.50;96.70;;;;;;5066251;28;20058;-76
2023/08/14 08:39:32;;;;;;;6.75;2.53;;;28.50;96.70;;;;;;5066212;28;20526;-76
2023/08/14 08:42:02;;;;;;;6.03;2.45;;;28.60;96.70;;;;;;5065381;28;20671;-76
2023/08/14 08:44:32;;;;;;;5.18;2.78;;;28.60;96.70;;;;;;5058412;28;20858;-76
2023/08/14 08:47:10;;;;;;;3.20;2.33;;;28.60;96.70;;;;;;5064892;28;20566;-76
2023/08/14 08:49:40;;;;;;;5.13;2.63;;;28.80;96.70;;;;;;5063945;28;20514;-76
2023/08/14 08:52:11;;;;;;;5.13;2.28;;;28.90;96.70;;;;;;5064228;28;20052;-76
2023/08/14 08:54:41;;;;;;;3.33;2.20;;;29.00;96.70;;;;;;5052032;28;20029;-76
2023/08/14 08:57:09;;;;;;;5.28;2.80;;;29.10;96.70;;;;;;5048236;28;20045;-76
2023/08/14 08:59:40;;;;;;;3.70;2.30;;;29.30;96.70;;;;;;5064026;28;20115;-76
2023/08/14 09:02:08;;;;;;;3.00;2.70;;;29.30;96.70;;;;;;5064287;28;20127;-76
2023/08/14 09:04:36;;;;;;;3.65;2.90;;;29.30;96.70;;;;;;5065441;28;20509;-76
2023/08/14 09:07:06;;;;;;;7.50;2.45;;;29.30;96.70;;;;;;5063758;28;20139;-76
2023/08/14 09:09:35;;;;;;;4.32;2.53;;;29.50;96.70;;;;;;5081006;28;20044;-76
2023/08/14 09:12:04;;;;;;;2.58;2.38;;;29.60;96.70;;;;;;5065903;28;20504;-76
2023/08/14 09:14:32;;;;;;;4.10;2.30;;;29.70;96.70;;;;;;5064862;28;20075;-76
2023/08/14 09:17:02;;;;;;;3.45;2.15;;;29.70;96.70;;;;;;5065883;28;20075;-76
2023/08/14 09:19:31;;;;;;;1.88;1.63;;;29.70;96.70;;;;;;5065708;28;20066;-75
2023/08/14 09:21:59;;;;;;;2.50;1.83;;;29.70;96.70;;;;;;5065827;28;20650;-76
2023/08/14 09:24:27;;;;;;;3.83;1.88;;;29.80;96.70;;;;;;5064132;28;20041;-76
2023/08/14 09:26:55;;;;;;;3.47;1.92;;;30.10;96.70;;;;;;5063712;28;20067;-76
2023/08/14 09:29:25;;;;;;;3.40;2.13;;;30.20;96.70;;;;;;5064736;28;20052;-76
2023/08/14 09:31:54;;;;;;;3.13;1.90;;;30.40;96.70;;;;;;5063437;28;20494;-76
2023/08/14 09:34:22;;;;;;;4.18;1.80;;;30.40;96.70;;;;;;5055286;28;20135;-76
2023/08/14 09:36:50;;;;;;;3.97;2.17;;;30.50;96.70;;;;;;5061501;28;20410;-76
2023/08/14 09:39:20;;;;;;;2.47;1.90;;;30.50;96.70;;;;;;5065139;28;20052;-76
2023/08/14 09:41:49;;;;;;;4.13;2.10;;;30.50;96.70;;;;;;5063478;28;20071;-76
2023/08/14 09:44:19;;;;;;;4.07;1.80;;;30.50;96.70;;;;;;5062848;28;20048;-76
2023/08/14 09:46:51;;;;;;;4.55;1.77;;;30.60;96.70;;;;;;5056917;28;20048;-76
2023/08/14 09:49:20;;;;;;;3.50;1.80;;;30.70;96.70;;;;;;5063457;28;20147;-76
2023/08/14 09:51:55;;;;;;;3.58;2.50;;;30.90;96.70;;;;;;5062225;28;20045;-76
2023/08/14 09:54:31;;;;;;;2.17;1.42;;;31.00;96.70;;;;;;5063059;28;20036;-76
2023/08/14 09:56:59;;;;;;;1.58;1.17;;;30.90;96.70;;;;;;5064749;28;20075;-76
2023/08/14 09:59:28;;;;;;;4.65;1.85;;;31.00;96.70;;;;;;5063379;28;20048;-76
2023/08/14 10:01:59;;;;;;;1.63;1.38;;;31.10;96.70;;;;;;5063235;28;20044;-76
2023/08/14 10:04:30;;;;;;;3.47;1.52;;;31.20;96.70;;;;;;5064212;28;20064;-76
2023/08/14 10:06:59;;;;;;;3.35;1.80;;;31.40;96.70;;;;;;5062538;28;20109;-76
2023/08/14 10:09:28;;;;;;;3.55;1.35;;;31.60;96.70;;;;;;5064453;28;20131;-76
2023/08/14 10:12:03;;;;;;;3.00;1.60;;;31.50;96.70;;;;;;5063952;28;20529;-76
2023/08/14 10:14:34;;;;;;;2.40;1.45;;;31.50;96.70;;;;;;5062703;28;20608;-76
2023/08/14 10:17:06;;;;;;;1.98;1.23;;;31.70;96.70;;;;;;5064837;28;20087;-76
2023/08/14 10:19:36;;;;;;;5.35;1.65;;;31.90;96.70;;;;;;5063488;28;20095;-76
2023/08/14 10:22:06;;;;;;;6.35;1.60;;;31.80;96.70;;;;;;5063157;28;20403;-76
2023/08/14 10:24:37;;;;;;;3.05;1.70;;;31.90;96.70;;;;;;5062825;28;20594;-76
2023/08/14 10:27:05;;;;;;;2.83;1.45;;;32.20;96.70;;;;;;5064191;28;20056;-76
2023/08/14 10:29:35;;;;;;;5.03;1.50;;;32.40;96.70;;;;;;5062192;28;20493;-76
2023/08/14 10:32:05;;;;;;;3.63;1.60;;;32.60;96.70;;;;;;5056512;28;20045;-76
2023/08/14 10:34:34;;;;;;;3.03;1.60;;;32.70;96.70;;;;;;5045184;28;20056;-76
2023/08/14 10:37:02;;;;;;;2.75;1.80;;;32.80;96.70;;;;;;5062966;28;20053;-76
2023/08/14 10:39:34;;;;;;;3.15;1.70;;;33.00;96.70;;;;;;5064209;28;20044;-76
2023/08/14 10:42:05;;;;;;;3.63;2.10;;;33.20;96.70;;;;;;5062415;28;20078;-76
2023/08/14 10:44:35;;;;;;;3.97;1.52;;;33.30;96.70;;;;;;5062043;28;20040;-76
2023/08/14 10:47:11;;;;;;;2.38;1.80;;;33.40;96.70;;;;;;5054868;28;20045;-76
2023/08/14 10:49:44;;;;;;;2.38;1.50;;;33.50;96.70;;;;;;5071394;28;20395;-76
2023/08/14 10:52:16;;;;;;;2.42;1.48;;;33.60;96.70;;;;;;5062493;28;20410;-76
2023/08/14 10:54:50;;;;;;;3.40;1.60;;;33.80;96.70;;;;;;5063932;28;20037;-76
2023/08/14 10:57:26;;;;;;;2.38;1.80;;;33.80;96.70;;;;;;5062905;28;20488;-76
2023/08/14 10:59:55;;;;;;;3.58;1.73;;;33.90;96.70;;;;;;5061526;28;20143;-75
2023/08/14 11:02:25;;;;;;;2.17;1.67;;;33.70;96.70;;;;;;5062058;28;20040;-76
2023/08/14 11:05:01;;;;;;;5.97;1.73;;;33.70;96.70;;;;;;5063633;28;20489;-76
2023/08/14 11:07:30;;;;;;;3.10;1.53;;;33.80;96.70;;;;;;5061348;28;20050;-76
2023/08/14 11:09:58;;;;;;;3.25;1.60;;;33.70;96.70;;;;;;5062210;28;20313;-75
2023/08/14 11:12:31;;;;;;;5.20;1.67;;;33.80;96.70;;;;;;5062241;28;20129;-76
2023/08/14 11:15:00;;;;;;;3.88;1.60;;;34.00;96.70;;;;;;5061756;28;20105;-76
2023/08/14 11:17:29;;;;;;;2.28;1.60;;;34.00;96.70;;;;;;5063484;28;20076;-76
2023/08/14 11:19:57;;;;;;;1.60;1.50;;;33.90;96.70;;;;;;5062946;28;20045;-76
2023/08/14 11:22:25;;;;;;;3.75;1.70;;;33.80;96.70;;;;;;5063087;28;20048;-76
2023/08/14 11:24:54;;;;;;;1.98;1.60;;;33.80;96.70;;;;;;5062475;28;20486;-75
2023/08/14 11:27:23;;;;;;;2.92;1.70;;;34.10;96.70;;;;;;5061404;28;20040;-76
2023/08/14 11:29:51;;;;;;;4.22;1.60;;;34.20;96.70;;;;;;5060602;28;20048;-76
2023/08/14 11:32:24;;;;;;;3.80;1.50;;;34.50;96.70;;;;;;5062553;28;20040;-76
2023/08/14 11:34:54;;;;;;;2.33;1.60;;;34.70;96.70;;;;;;5054960;28;20068;-76
2023/08/14 11:37:22;;;;;;;2.58;1.55;;;34.90;96.70;;;;;;5063686;28;20044;-76
2023/08/14 11:39:51;;;;;;;2.35;1.70;;;35.10;96.70;;;;;;5063168;28;20045;-77
2023/08/14 11:42:19;;;;;;;5.20;2.17;;;35.20;96.70;;;;;;5061334;28;20134;-76
2023/08/14 11:44:48;;;;;;;3.22;1.70;;;35.40;96.50;;;;;;5061474;28;20427;-76
2023/08/14 11:47:17;;;;;;;2.83;1.42;;;35.50;96.50;;;;;;5063088;28;20314;-76
2023/08/14 11:49:45;;;;;;;3.08;1.92;;;35.40;96.10;;;;;;5063107;28;20571;-76
2023/08/14 11:52:15;;;;;;;3.60;1.52;;;35.40;95.90;;;;;;5061233;28;20406;-76
2023/08/14 11:54:44;;;;;;;2.22;1.58;;;35.60;96.60;;;;;;5061391;28;20099;-76
2023/08/14 11:57:13;;;;;;;1.95;1.40;;;35.60;96.70;;;;;;5061772;28;20048;-76
2023/08/14 11:59:43;;;;;;;1.50;1.30;;;35.50;96.70;;;;;;5061237;28;20049;-76
2023/08/14 12:02:11;;;;;;;1.63;1.30;;;35.60;96.70;;;;;;5061278;28;20076;-76
2023/08/14 12:04:40;;;;;;;3.80;1.95;;;35.80;96.70;;;;;;5060368;28;20044;-76
2023/08/14 12:07:09;;;;;;;2.75;1.65;;;36.00;96.20;;;;;;5061573;28;20627;-76
2023/08/14 12:09:39;;;;;;;3.10;1.60;;;36.10;94.10;;;;;;5061562;28;20049;-76
2023/08/14 12:12:07;;;;;;;3.38;1.30;;;36.20;94.40;;;;;;5061285;28;20575;-76
2023/08/14 12:14:39;;;;;;;3.47;1.23;;;36.40;93.50;;;;;;5061113;28;20639;-76
2023/08/14 12:17:11;;;;;;;3.03;1.63;;;36.30;95.10;;;;;;5060914;28;20859;-76
2023/08/14 12:19:51;;;;;;;3.10;1.77;;;36.40;93.90;;;;;;5062796;28;20048;-76
2023/08/14 12:22:22;;;;;;;2.90;1.70;;;36.50;94.20;;;;;;5060755;28;20130;-76
2023/08/14 12:24:54;;;;;;;2.67;1.45;;;36.70;93.70;;;;;;5048448;28;20048;-76
2023/08/14 12:27:24;;;;;;;3.42;1.60;;;36.70;91.80;;;;;;5061122;28;20052;-75
2023/08/14 12:29:53;;;;;;;1.70;1.40;;;36.80;92.00;;;;;;5060939;28;20053;-76
2023/08/14 12:32:23;;;;;;;3.17;1.67;;;36.90;91.70;;;;;;5061252;28;20036;-76
2023/08/14 12:34:52;;;;;;;2.83;1.40;;;36.80;92.10;;;;;;5062231;28;20040;-76
2023/08/14 12:37:21;;;;;;;2.58;1.40;;;36.70;92.60;;;;;;5064628;28;20517;-76
2023/08/14 12:39:53;;;;;;;3.30;1.50;;;36.70;93.20;;;;;;5064624;28;20040;-76
2023/08/14 12:42:21;;;;;;;3.38;1.88;;;36.90;93.50;;;;;;5066596;28;20048;-76
2023/08/14 12:44:52;;;;;;;2.35;1.33;;;36.90;94.60;;;;;;5047900;28;20483;-76
2023/08/14 12:47:20;;;;;;;5.32;1.83;;;37.10;93.80;;;;;;5066023;28;20040;-76
2023/08/14 12:49:49;;;;;;;1.92;1.40;;;37.10;93.40;;;;;;5064421;28;20041;-76
2023/08/14 12:52:17;;;;;;;2.92;1.60;;;37.30;94.20;;;;;;5064576;28;20379;-77
2023/08/14 12:54:46;;;;;;;2.80;1.63;;;37.20;93.80;;;;;;5064469;28;20064;-77
2023/08/14 12:57:16;;;;;;;3.10;1.63;;;37.10;94.50;;;;;;5065766;28;20933;-76
2023/08/14 12:59:44;;;;;;;2.72;1.63;;;37.20;95.10;;;;;;5065257;28;20507;-77
2023/08/14 13:02:17;;;;;;;2.50;1.70;;;37.10;94.60;;;;;;5064634;28;20051;-76